createdAt,value
2018-08-25T03:55:44.174Z,8.38
2018-08-25T03:59:52.091Z,8.98
2018-08-25T04:03:58.277Z,7.75
2018-08-25T04:08:05.112Z,7.73
2018-08-25T04:12:13.434Z,8.13
2018-08-25T04:16:21.775Z,7.60
2018-08-25T04:20:29.182Z,7.50
2018-08-25T04:24:36.964Z,9.55
2018-08-25T04:28:45.839Z,9.97
2018-08-25T04:32:51.482Z,7.87
2018-08-25T04:36:56.176Z,8.30
2018-08-25T09:13:50.068Z,6.25
2018-08-25T09:19:32.490Z,7.87
2018-08-25T09:23:52.043Z,6.80
2018-08-25T09:28:12.013Z,8.85
2018-08-25T09:32:29.337Z,6.17
2018-08-25T14:36:46.001Z,4.42
2018-08-25T15:59:17.930Z,5.35
2018-08-25T18:50:08.421Z,4.17
2018-08-25T22:25:41.450Z,3.60
2018-08-25T22:29:45.149Z,4.93
2018-08-25T22:33:54.713Z,5.20
2018-08-25T22:38:01.525Z,6.87
2018-08-25T22:42:05.525Z,5.00
2018-08-25T22:46:10.072Z,5.83
2018-08-25T22:50:14.788Z,5.70
2018-08-25T22:54:25.871Z,4.73
2018-08-25T22:58:30.968Z,5.77
2018-08-25T23:02:36.565Z,4.37
2018-08-25T23:06:42.789Z,4.40
2018-08-25T23:10:47.301Z,4.47
2018-08-25T23:14:54.402Z,4.93
2018-08-25T23:18:59.516Z,3.87
2018-08-25T23:23:05.027Z,4.77
2018-08-25T23:27:09.613Z,2.67
2018-08-25T23:31:14.542Z,3.13
2018-08-25T23:35:18.534Z,2.77
2018-08-25T23:39:22.570Z,2.57
2018-08-25T23:43:27.178Z,7.83
2018-08-25T23:47:31.067Z,5.27
2018-08-25T23:51:34.878Z,3.20
2018-08-25T23:55:39.276Z,2.87
2018-08-25T23:59:43.173Z,2.60
